createdAt,value
2018-01-01T00:02:12.704Z,3.93
2018-01-01T00:04:41.723Z,4.06
2018-01-01T00:07:10.768Z,4.45
2018-01-01T00:09:39.811Z,4.70
2018-01-01T00:12:10.858Z,5.04
2018-01-01T00:14:39.905Z,5.25
2018-01-01T00:17:16.314Z,5.34
2018-01-01T00:19:45.369Z,5.26
2018-01-01T00:22:14.426Z,5.18
2018-01-01T00:24:43.457Z,5.06
2018-01-01T00:29:47.682Z,5.07
2018-01-01T00:32:17.665Z,5.04
2018-01-01T00:34:46.723Z,5.06
2018-01-01T00:37:16.686Z,5.11
2018-01-01T00:39:45.716Z,5.08
2018-01-01T00:42:14.749Z,5.45
2018-01-01T00:44:43.800Z,5.75
2018-01-01T00:47:12.865Z,5.84
2018-01-01T00:49:41.901Z,5.74
2018-01-01T00:52:15.272Z,5.83
2018-01-01T00:54:44.304Z,6.06
2018-01-01T00:57:17.059Z,6.18
2018-01-01T00:59:46.085Z,6.47
2018-01-01T01:02:16.074Z,6.54
2018-01-01T01:04:45.096Z,6.74
2018-01-01T01:07:18.363Z,6.78
2018-01-01T01:09:47.566Z,6.64
2018-01-01T01:12:16.566Z,6.27
2018-01-01T01:14:45.593Z,6.00
2018-01-01T01:17:14.721Z,5.73
2018-01-01T01:19:43.797Z,5.79
2018-01-01T01:22:13.692Z,5.90
2018-01-01T01:24:42.733Z,6.13
2018-01-01T01:27:13.725Z,6.17
2018-01-01T01:29:42.762Z,6.12
2018-01-01T01:32:13.692Z,6.16
2018-01-01T01:34:42.725Z,6.16
2018-01-01T01:37:11.792Z,6.25
2018-01-01T01:39:40.840Z,6.40
2018-01-01T01:42:09.868Z,6.41
2018-01-01T01:47:14.737Z,6.32
2018-01-01T01:49:44.692Z,6.37
2018-01-01T01:52:23.945Z,6.32
2018-01-01T01:54:52.981Z,6.31
2018-01-01T01:57:22.029Z,6.38
2018-01-01T01:59:51.062Z,6.28
2018-01-01T02:02:20.088Z,6.25
2018-01-01T02:04:50.034Z,6.18
2018-01-01T02:07:21.002Z,5.96
2018-01-01T02:12:25.272Z,5.83
2018-01-01T02:14:54.310Z,5.80
2018-01-01T02:17:23.341Z,5.84
2018-01-01T02:19:52.373Z,5.94
2018-01-01T02:22:24.708Z,6.02
2018-01-01T02:24:53.786Z,6.26
2018-01-01T02:27:22.825Z,6.46
2018-01-01T02:29:51.882Z,6.70
2018-01-01T02:35:05.106Z,6.88
2018-01-01T02:37:34.150Z,7.02
2018-01-01T02:40:03.191Z,7.06
2018-01-01T02:42:36.747Z,7.02
2018-01-01T02:45:05.778Z,7.23
2018-01-01T02:47:42.717Z,7.38
2018-01-01T02:50:17.700Z,7.58
2018-01-01T02:52:46.695Z,7.73
2018-01-01T02:55:15.740Z,7.81
2018-01-01T03:00:22.041Z,8.02
2018-01-01T03:02:51.193Z,8.08
2018-01-01T03:07:55.414Z,8.32
2018-01-01T03:10:24.438Z,8.45
2018-01-01T03:12:53.483Z,8.50
2018-01-01T03:15:23.257Z,8.51
2018-01-01T03:17:58.257Z,8.53
2018-01-01T03:20:27.386Z,8.60
2018-01-01T03:22:56.441Z,8.44
2018-01-01T03:25:25.503Z,8.67
2018-01-01T03:30:31.853Z,8.68
2018-01-01T03:35:36.101Z,8.61
2018-01-01T03:43:15.565Z,8.63
2018-01-01T03:45:45.626Z,8.57
2018-01-01T03:48:14.653Z,8.59
2018-01-01T03:50:55.110Z,8.56
2018-01-01T03:53:30.796Z,8.41
2018-01-01T03:56:00.851Z,8.38
2018-01-01T03:58:29.860Z,8.39
2018-01-01T04:00:58.888Z,8.35
2018-01-01T04:03:27.977Z,8.29
2018-01-01T04:05:57.012Z,8.26
2018-01-01T04:21:43.955Z,7.62
2018-01-01T04:24:12.989Z,7.32
2018-01-01T04:26:43.997Z,7.17
2018-01-01T04:29:13.038Z,6.96
2018-01-01T04:31:42.233Z,6.81
2018-01-01T04:34:16.930Z,6.61
2018-01-01T04:36:46.868Z,6.41
2018-01-01T04:39:23.422Z,6.00
2018-01-01T04:41:52.450Z,5.78
2018-01-01T04:44:26.785Z,5.65
2018-01-01T04:46:55.822Z,5.58
2018-01-01T04:49:24.844Z,5.50
2018-01-01T04:51:54.784Z,5.40
2018-01-01T04:54:28.144Z,5.46
2018-01-01T04:56:57.177Z,5.42
2018-01-01T04:59:29.826Z,5.37
2018-01-01T05:01:58.851Z,5.33
2018-01-01T05:04:33.349Z,5.41
2018-01-01T05:07:02.448Z,5.53
2018-01-01T05:12:06.889Z,5.45
2018-01-01T05:14:35.949Z,5.42
2018-01-01T05:17:04.992Z,5.39
2018-01-01T05:19:34.041Z,5.32
2018-01-01T05:22:03.071Z,5.32
2018-01-01T05:24:32.120Z,5.30
2018-01-01T05:27:01.141Z,5.33
2018-01-01T05:29:32.127Z,5.36
2018-01-01T05:32:01.152Z,5.36
2018-01-01T05:34:30.181Z,5.40
2018-01-01T05:36:59.224Z,5.46
2018-01-01T05:39:32.170Z,5.42
2018-01-01T05:42:01.203Z,5.50
2018-01-01T05:44:30.411Z,5.47
2018-01-01T05:46:59.413Z,5.50
2018-01-01T05:49:33.445Z,5.41
2018-01-01T05:52:02.479Z,5.36
2018-01-01T05:54:47.042Z,5.47
2018-01-01T06:00:00.453Z,5.40
2018-01-01T06:02:34.892Z,5.46
2018-01-01T06:05:03.971Z,5.40
2018-01-01T06:07:34.977Z,5.41
2018-01-01T06:10:04.024Z,5.37
2018-01-01T06:12:33.044Z,5.34
2018-01-01T06:15:02.102Z,5.33
2018-01-01T06:17:34.888Z,5.38
2018-01-01T06:20:03.959Z,5.37
2018-01-01T06:22:38.460Z,5.30
2018-01-01T06:25:07.497Z,5.35
2018-01-01T06:27:38.525Z,5.32
2018-01-01T06:30:35.733Z,5.37
2018-01-01T06:33:04.776Z,5.32
2018-01-01T06:35:38.877Z,5.32
2018-01-01T06:38:07.908Z,5.33
2018-01-01T06:40:38.848Z,5.35
2018-01-01T06:43:09.864Z,5.38
2018-01-01T06:45:40.906Z,5.35
2018-01-01T06:48:09.935Z,5.25
2018-01-01T06:50:39.867Z,5.27
2018-01-01T06:53:08.900Z,5.34
2018-01-01T06:55:42.524Z,5.33
2018-01-01T06:58:11.550Z,5.28
2018-01-01T07:00:40.585Z,5.33
2018-01-01T07:03:09.625Z,5.36
2018-01-01T07:05:41.681Z,5.35
2018-01-01T07:08:10.713Z,5.30
2018-01-01T07:10:39.769Z,5.38
2018-01-01T07:13:08.814Z,5.40
2018-01-01T07:15:37.846Z,5.38
2018-01-01T07:18:06.923Z,5.40
2018-01-01T07:23:11.182Z,5.42
2018-01-01T07:25:40.210Z,5.44
2018-01-01T07:28:09.249Z,5.49
2018-01-01T07:30:38.293Z,5.47
2018-01-01T07:33:07.325Z,5.46
2018-01-01T07:35:37.393Z,5.57
2018-01-01T07:38:06.413Z,5.54
2018-01-01T07:40:36.458Z,5.58
2018-01-01T07:43:06.997Z,5.64
2018-01-01T07:45:37.049Z,5.64
2018-01-01T07:48:06.093Z,5.76
2018-01-01T07:50:35.112Z,5.76
2018-01-01T07:53:09.138Z,5.76
2018-01-01T07:55:38.173Z,5.81
2018-01-01T07:58:08.173Z,5.92
2018-01-01T08:00:37.188Z,5.82
2018-01-01T08:03:06.229Z,5.78
2018-01-01T08:05:35.261Z,5.96
2018-01-01T08:08:05.254Z,6.01
2018-01-01T08:10:34.277Z,6.01
2018-01-01T08:13:06.927Z,6.04
2018-01-01T08:15:36.858Z,6.06
2018-01-01T08:18:07.891Z,6.13
2018-01-01T08:20:36.931Z,5.98
2018-01-01T08:25:41.156Z,6.15
2018-01-01T08:28:12.176Z,6.16
2018-01-01T08:30:41.229Z,6.22
2018-01-01T08:33:13.431Z,6.23
2018-01-01T08:38:23.225Z,6.28
2018-01-01T08:40:55.361Z,6.30
2018-01-01T08:43:24.810Z,6.34
2018-01-01T08:45:53.825Z,6.35
2018-01-01T08:50:58.069Z,6.49
2018-01-01T08:53:27.111Z,6.42
2018-01-01T08:58:32.402Z,6.41
2018-01-01T09:01:01.436Z,6.42
2018-01-01T09:03:31.373Z,6.42
2018-01-01T09:06:00.408Z,6.52
2018-01-01T09:08:29.444Z,6.47
2018-01-01T09:10:58.535Z,6.50
2018-01-01T09:16:04.772Z,6.45
2018-01-01T09:18:33.797Z,6.41
2018-01-01T09:21:02.824Z,6.46
2018-01-01T09:23:32.802Z,6.50
2018-01-01T09:26:01.795Z,6.54
2018-01-01T09:31:07.086Z,6.61
2018-01-01T09:33:36.107Z,6.70
2018-01-01T09:36:05.165Z,6.63
2018-01-01T09:38:34.217Z,6.56
2018-01-01T09:41:03.296Z,6.54
2018-01-01T09:43:34.422Z,6.59
2018-01-01T09:46:07.894Z,6.63
2018-01-01T09:48:36.941Z,6.63
2018-01-01T09:51:05.947Z,6.58
2018-01-01T09:53:34.989Z,6.54
2018-01-01T09:56:04.034Z,6.60
2018-01-01T09:58:33.120Z,6.54
2018-01-01T10:01:02.124Z,6.60
2018-01-01T10:03:35.874Z,6.63
2018-01-01T10:06:10.865Z,6.58
2018-01-01T10:08:39.874Z,6.65
2018-01-01T10:11:08.927Z,6.72
2018-01-01T10:13:38.870Z,6.74
2018-01-01T10:16:07.909Z,6.86
2018-01-01T10:18:37.957Z,6.91
2018-01-01T10:21:07.013Z,6.98
2018-01-01T10:26:11.612Z,6.91
2018-01-01T10:28:40.622Z,7.04
2018-01-01T10:31:09.653Z,7.01
2018-01-01T10:33:46.116Z,7.00
2018-01-01T10:36:15.122Z,6.93
2018-01-01T10:38:44.161Z,6.96
2018-01-01T10:41:14.183Z,6.94
2018-01-01T10:43:43.273Z,7.10
2018-01-01T10:46:12.332Z,7.10
2018-01-01T10:48:41.360Z,7.12
2018-01-01T10:51:10.402Z,7.07
2018-01-01T10:53:39.443Z,7.05
2018-01-01T10:56:08.473Z,7.07
2018-01-01T10:58:37.513Z,7.06
2018-01-01T11:03:41.750Z,7.22
2018-01-01T11:08:52.142Z,7.29
2018-01-01T11:14:04.370Z,7.23
2018-01-01T11:16:33.395Z,7.21
2018-01-01T11:19:02.452Z,7.36
2018-01-01T11:21:31.488Z,7.91
2018-01-01T11:24:00.512Z,8.33
2018-01-01T11:26:29.528Z,8.12
2018-01-01T11:31:33.787Z,7.90
2018-01-01T11:34:03.708Z,7.99
2018-01-01T11:36:32.743Z,8.19
2018-01-01T11:39:01.800Z,7.96
2018-01-01T11:41:30.829Z,7.81
2018-01-01T11:43:59.880Z,7.59
2018-01-01T11:49:05.190Z,7.46
2018-01-01T11:51:34.215Z,7.61
2018-01-01T11:54:03.255Z,7.72
2018-01-01T11:56:34.246Z,7.79
2018-01-01T11:59:03.324Z,7.83
2018-01-01T12:01:32.345Z,7.94
2018-01-01T12:04:01.426Z,7.88
2018-01-01T12:09:05.737Z,7.71
2018-01-01T12:11:34.775Z,7.54
2018-01-01T12:14:03.840Z,7.53
2018-01-01T12:16:32.877Z,7.37
2018-01-01T12:19:01.920Z,7.31
2018-01-01T12:21:30.958Z,7.36
2018-01-01T12:24:00.096Z,7.32
2018-01-01T12:26:29.149Z,7.15
2018-01-01T12:28:58.173Z,7.02
2018-01-01T12:31:27.434Z,7.17
2018-01-01T12:33:56.509Z,7.16
2018-01-01T12:36:29.620Z,7.29
2018-01-01T12:41:33.901Z,6.97
2018-01-01T12:44:02.998Z,6.88
2018-01-01T12:46:32.067Z,7.27
2018-01-01T12:49:03.085Z,8.05
2018-01-01T12:56:42.687Z,8.47
2018-01-01T12:59:11.753Z,8.83
2018-01-01T13:01:40.785Z,9.26
2018-01-01T13:06:45.122Z,9.50
2018-01-01T13:09:14.169Z,8.83
2018-01-01T13:11:43.315Z,8.43
2018-01-01T13:14:12.866Z,7.99
2018-01-01T13:19:19.533Z,8.64
2018-01-01T13:21:49.408Z,8.90
2018-01-01T13:24:22.165Z,8.05
2018-01-01T13:26:51.213Z,8.69
2018-01-01T13:29:20.302Z,8.92
2018-01-01T13:31:49.345Z,8.23
2018-01-01T13:34:18.378Z,9.20
2018-01-01T13:36:47.418Z,9.08
2018-01-01T13:39:17.404Z,9.89
2018-01-01T13:41:46.433Z,9.69
2018-01-01T13:44:16.384Z,9.95
2018-01-01T13:46:45.417Z,9.98
2018-01-01T13:49:14.496Z,9.33
2018-01-01T13:51:44.225Z,9.60
2018-01-01T13:54:14.229Z,9.39
2018-01-01T13:56:43.290Z,9.10
2018-01-01T13:59:12.320Z,8.73
2018-01-01T14:01:41.353Z,9.04
2018-01-01T14:04:10.387Z,9.55
2018-01-01T14:09:14.732Z,8.94
2018-01-01T14:14:19.053Z,8.40
2018-01-01T14:16:48.105Z,8.27
2018-01-01T14:19:17.173Z,8.00
2018-01-01T14:24:22.469Z,7.69
2018-01-01T14:26:51.504Z,7.49
2018-01-01T14:29:20.532Z,7.34
2018-01-01T14:31:49.574Z,7.32
2018-01-01T14:34:18.603Z,7.29
2018-01-01T14:36:47.663Z,7.15
2018-01-01T14:39:16.676Z,7.10
2018-01-01T14:41:45.712Z,6.98
2018-01-01T14:44:14.732Z,6.85
2018-01-01T14:46:43.762Z,6.67
2018-01-01T14:49:12.805Z,6.41
2018-01-01T14:51:42.767Z,6.46
2018-01-01T14:54:11.798Z,6.49
2018-01-01T14:56:40.828Z,6.49
2018-01-01T14:59:17.488Z,6.35
2018-01-01T15:01:49.886Z,6.26
2018-01-01T15:04:18.972Z,6.03
2018-01-01T15:06:48.005Z,5.89
2018-01-01T15:09:18.058Z,5.77
2018-01-01T15:11:49.067Z,5.60
2018-01-01T15:14:18.092Z,5.30
2018-01-01T15:16:49.105Z,5.06
2018-01-01T15:19:18.180Z,4.86
2018-01-01T15:21:47.216Z,4.67
2018-01-01T15:24:16.267Z,4.56
2018-01-01T15:26:45.385Z,4.37
2018-01-01T15:29:14.390Z,4.18
2018-01-01T15:31:43.422Z,3.89
2018-01-01T15:34:13.426Z,3.72
2018-01-01T15:36:42.469Z,3.68
2018-01-01T15:41:46.717Z,3.85
2018-01-01T15:44:15.771Z,3.76
2018-01-01T15:46:46.791Z,3.43
2018-01-01T15:49:15.836Z,3.16
2018-01-01T15:51:44.886Z,2.86
2018-01-01T15:56:49.184Z,2.57
2018-01-01T16:02:00.760Z,2.27
2018-01-01T16:04:29.765Z,1.99
2018-01-01T16:06:58.825Z,1.93
2018-01-01T16:09:27.848Z,1.65
2018-01-01T16:11:56.885Z,1.63
2018-01-01T16:14:25.933Z,1.77
2018-01-01T16:16:56.985Z,1.70
2018-01-01T16:19:26.029Z,1.62
2018-01-01T16:21:55.065Z,1.46
2018-01-01T16:24:25.012Z,1.19
2018-01-01T16:26:54.054Z,1.07
2018-01-01T16:29:23.180Z,0.91
2018-01-01T16:31:52.284Z,0.91
2018-01-01T16:36:58.861Z,1.17
2018-01-01T16:39:27.872Z,1.46
2018-01-01T16:41:56.892Z,1.70
2018-01-01T16:44:25.941Z,1.71
2018-01-01T16:46:56.921Z,1.52
2018-01-01T16:49:25.959Z,1.52
2018-01-01T16:51:55.008Z,1.14
2018-01-01T16:54:24.042Z,1.00
2018-01-01T16:56:54.021Z,0.80
2018-01-01T16:59:23.059Z,0.52
2018-01-01T17:01:53.002Z,0.51
2018-01-01T17:04:28.215Z,0.42
2018-01-01T17:06:58.198Z,0.45
2018-01-01T17:09:27.251Z,0.38
2018-01-01T17:11:56.288Z,0.40
2018-01-01T17:14:25.337Z,0.29
2018-01-01T17:16:56.333Z,0.28
2018-01-01T17:19:25.369Z,0.16
2018-01-01T17:21:58.425Z,0.22
2018-01-01T17:24:27.465Z,0.24
2018-01-01T17:26:56.571Z,0.24
2018-01-01T17:29:25.613Z,0.25
2018-01-01T17:31:54.669Z,0.35
2018-01-01T17:34:23.737Z,0.49
2018-01-01T17:36:52.761Z,0.37
2018-01-01T17:41:57.022Z,0.51
2018-01-01T17:44:26.477Z,0.43
2018-01-01T17:47:06.027Z,0.52
2018-01-01T17:49:35.085Z,0.68
2018-01-01T17:52:04.176Z,0.68
2018-01-01T17:54:37.144Z,0.64
2018-01-01T17:57:06.177Z,0.99
2018-01-01T18:02:14.373Z,1.26
2018-01-01T18:04:45.225Z,1.53
2018-01-01T18:07:14.272Z,1.67
2018-01-01T18:09:45.472Z,1.67
2018-01-01T18:12:14.523Z,1.68
2018-01-01T18:17:21.259Z,1.29
2018-01-01T18:19:50.295Z,1.31
2018-01-01T18:22:19.348Z,1.06
2018-01-01T18:24:48.375Z,1.05
2018-01-01T18:27:17.424Z,0.87
2018-01-01T18:29:50.251Z,0.99
2018-01-01T18:32:19.293Z,1.21
2018-01-01T18:34:50.238Z,1.18
2018-01-01T18:39:56.465Z,0.98
2018-01-01T18:42:27.409Z,0.87
2018-01-01T18:44:56.480Z,1.15
2018-01-01T18:47:25.522Z,1.64
2018-01-01T18:50:00.341Z,1.69
2018-01-01T18:52:29.392Z,1.85
2018-01-01T18:54:58.422Z,1.99
2018-01-01T18:57:27.463Z,2.25
2018-01-01T19:02:31.769Z,2.57
2018-01-01T19:05:00.810Z,2.66
2018-01-01T19:07:29.853Z,2.85
2018-01-01T19:10:02.062Z,2.86
2018-01-01T19:12:31.101Z,3.02
2018-01-01T19:15:08.157Z,3.14
2018-01-01T19:17:39.189Z,3.26
2018-01-01T19:22:44.457Z,3.56
2018-01-01T19:25:13.498Z,3.74
2018-01-01T19:27:46.240Z,3.62
2018-01-01T19:30:15.257Z,3.40
2018-01-01T19:32:44.361Z,3.40
2018-01-01T19:35:13.406Z,3.48
2018-01-01T19:37:43.450Z,3.61
2018-01-01T19:40:13.390Z,3.74
2018-01-01T19:42:45.952Z,3.87
2018-01-01T19:45:15.051Z,3.87
2018-01-01T19:50:19.365Z,4.26
2018-01-01T19:52:54.533Z,4.11
2018-01-01T19:55:23.545Z,3.92
2018-01-01T19:57:53.596Z,3.87
2018-01-01T20:00:22.663Z,3.82
2018-01-01T20:02:51.699Z,3.78
2018-01-01T20:05:20.716Z,3.78
2018-01-01T20:07:49.760Z,3.78
2018-01-01T20:10:18.950Z,3.78
2018-01-01T20:12:48.046Z,3.81
2018-01-01T20:15:17.102Z,3.86
2018-01-01T20:17:46.153Z,3.86
2018-01-01T20:20:15.199Z,4.00
2018-01-01T20:22:44.250Z,4.02
2018-01-01T20:25:13.321Z,4.02
2018-01-01T20:27:42.349Z,4.05
2018-01-01T20:30:11.467Z,4.16
2018-01-01T20:32:40.520Z,4.24
2018-01-01T20:35:09.533Z,4.31
2018-01-01T20:37:38.587Z,4.34
2018-01-01T20:42:42.899Z,4.51
2018-01-01T20:45:11.956Z,4.60
2018-01-01T20:50:19.406Z,4.61
2018-01-01T20:52:48.933Z,4.41
2018-01-01T20:55:27.168Z,4.20
2018-01-01T20:57:57.079Z,3.91
2018-01-01T21:00:28.134Z,3.85
2018-01-01T21:02:57.166Z,4.15
2018-01-01T21:05:30.249Z,4.48
2018-01-01T21:07:59.282Z,4.65
2018-01-01T21:10:28.313Z,4.79
2018-01-01T21:12:57.342Z,4.75
2018-01-01T21:15:26.405Z,4.52
2018-01-01T21:17:55.446Z,4.57
2018-01-01T21:20:24.464Z,4.79
2018-01-01T21:22:53.498Z,4.97
2018-01-01T21:25:22.542Z,5.22
2018-01-01T21:27:51.570Z,5.26
2018-01-01T21:30:22.508Z,5.48
2018-01-01T21:32:51.679Z,5.49
2018-01-01T21:35:20.682Z,5.60
2018-01-01T21:37:49.730Z,6.02
2018-01-01T21:42:53.984Z,6.50
2018-01-01T21:45:23.021Z,6.72
2018-01-01T21:47:52.070Z,6.83
2018-01-01T21:50:21.124Z,6.87
2018-01-01T21:52:50.138Z,6.95
2018-01-01T21:55:25.831Z,6.97
2018-01-01T21:58:20.961Z,6.88
2018-01-01T22:00:56.498Z,7.17
2018-01-01T22:03:25.822Z,7.27
2018-01-01T22:05:59.405Z,7.25
2018-01-01T22:08:28.436Z,7.19
2018-01-01T22:11:01.901Z,7.32
2018-01-01T22:13:34.773Z,7.25
2018-01-01T22:16:03.834Z,7.26
2018-01-01T22:18:32.887Z,7.30
2018-01-01T22:21:01.924Z,7.14
2018-01-01T22:23:31.886Z,7.14
2018-01-01T22:26:00.922Z,6.98
2018-01-01T22:28:33.564Z,6.95
2018-01-01T22:31:02.603Z,6.83
2018-01-01T22:33:31.622Z,6.99
2018-01-01T22:36:01.572Z,7.08
2018-01-01T22:41:07.321Z,7.10
2018-01-01T22:43:38.330Z,7.14
2018-01-01T22:46:07.377Z,7.22
2018-01-01T22:48:36.415Z,7.37
2018-01-01T22:51:05.450Z,7.49
2018-01-01T22:53:34.526Z,7.45
2018-01-01T22:56:03.565Z,7.52
2018-01-01T22:58:32.619Z,7.46
2018-01-01T23:01:01.819Z,7.40
2018-01-01T23:03:34.271Z,7.42
2018-01-01T23:06:03.297Z,7.40
2018-01-01T23:08:32.384Z,7.34
2018-01-01T23:11:01.424Z,7.31
2018-01-01T23:13:38.152Z,7.30
2018-01-01T23:16:07.176Z,7.19
2018-01-01T23:18:37.165Z,7.17
2018-01-01T23:21:06.201Z,7.17
2018-01-01T23:23:36.173Z,7.06
2018-01-01T23:26:06.105Z,6.99
2018-01-01T23:28:37.186Z,7.01
2018-01-01T23:31:06.233Z,7.00
2018-01-01T23:36:10.513Z,7.02
2018-01-01T23:38:45.421Z,7.04
2018-01-01T23:41:14.470Z,6.96
2018-01-01T23:43:49.889Z,6.86
2018-01-01T23:46:19.842Z,6.92
2018-01-01T23:48:49.805Z,6.93
2018-01-01T23:51:18.842Z,6.94
2018-01-01T23:53:48.796Z,6.88
2018-01-01T23:56:19.699Z,6.92
